createdAt,value
2019-01-08T00:00:01.027Z,1005.29
2019-01-08T00:01:00.987Z,1005.18
2019-01-08T00:02:00.998Z,1005.15
2019-01-08T00:03:00.975Z,1005.24
2019-01-08T00:04:00.971Z,1005.24
2019-01-08T00:05:00.969Z,1005.24
2019-01-08T00:06:00.949Z,1005.13
2019-01-08T00:07:00.942Z,1005.10
2019-01-08T00:08:00.916Z,1005.10
2019-01-08T00:09:00.914Z,1005.07
2019-01-08T00:10:00.899Z,1005.05
2019-01-08T00:11:00.891Z,1005.05
2019-01-08T00:12:00.881Z,1005.01
2019-01-08T00:13:00.865Z,1005.05
2019-01-08T00:14:00.885Z,1005.02
2019-01-08T00:15:00.857Z,1005.02
2019-01-08T00:16:00.832Z,1004.95
2019-01-08T00:17:00.849Z,1004.88
2019-01-08T00:18:00.821Z,1004.89
2019-01-08T00:19:00.814Z,1004.80
2019-01-08T00:20:00.798Z,1004.84
2019-01-08T00:21:00.772Z,1004.78
2019-01-08T00:22:00.768Z,1004.75
2019-01-08T00:23:00.789Z,1004.75
2019-01-08T00:24:00.743Z,1004.66
2019-01-08T00:25:00.740Z,1004.63
2019-01-08T00:26:00.725Z,1004.59
2019-01-08T00:27:00.702Z,1004.60
2019-01-08T00:28:00.712Z,1004.58
2019-01-08T00:29:00.685Z,1004.60
2019-01-08T00:30:00.683Z,1004.55
2019-01-08T00:31:00.676Z,1004.43
2019-01-08T00:32:00.674Z,1004.44
2019-01-08T00:33:00.675Z,1004.50
2019-01-08T00:34:00.655Z,1004.52
2019-01-08T00:35:00.633Z,1004.51
2019-01-08T00:36:00.622Z,1004.44
2019-01-08T00:37:00.609Z,1004.45
2019-01-08T00:38:00.590Z,1004.44
2019-01-08T00:39:00.592Z,1004.34
2019-01-08T00:40:00.573Z,1004.27
2019-01-08T00:41:00.571Z,1004.25
2019-01-08T00:42:00.543Z,1004.27
2019-01-08T00:43:00.546Z,1004.23
2019-01-08T00:44:00.531Z,1004.21
2019-01-08T00:45:00.558Z,1004.19
2019-01-08T00:46:00.511Z,1004.16
2019-01-08T00:47:00.499Z,1004.14
2019-01-08T00:48:00.478Z,1004.16
2019-01-08T00:49:00.489Z,1004.12
2019-01-08T00:50:00.466Z,1004.06
2019-01-08T00:51:00.471Z,1004.12
2019-01-08T00:52:00.441Z,1004.07
2019-01-08T00:53:00.424Z,1004.07
2019-01-08T00:54:00.442Z,1004.00
2019-01-08T00:55:00.418Z,1004.05
2019-01-08T00:56:00.446Z,1004.03
2019-01-08T00:57:00.388Z,1003.95
2019-01-08T00:58:00.378Z,1004.00
2019-01-08T00:59:00.354Z,1003.86
2019-01-08T01:00:00.356Z,1003.85
2019-01-08T01:01:00.363Z,1003.91
2019-01-08T01:02:00.333Z,1003.88
2019-01-08T01:03:00.338Z,1003.84
2019-01-08T01:04:00.317Z,1003.75
2019-01-08T01:05:00.289Z,1003.75
2019-01-08T01:06:00.283Z,1003.73
2019-01-08T01:07:00.297Z,1003.71
2019-01-08T01:08:00.277Z,1003.68
2019-01-08T01:09:00.263Z,1003.66
2019-01-08T01:10:00.255Z,1003.56
2019-01-08T01:11:00.230Z,1003.52
2019-01-08T01:12:00.258Z,1003.60
2019-01-08T01:13:00.202Z,1003.60
2019-01-08T01:14:00.195Z,1003.56
2019-01-08T01:15:00.192Z,1003.53
2019-01-08T01:16:00.185Z,1003.54
2019-01-08T01:17:00.171Z,1003.47
2019-01-08T01:18:00.174Z,1003.37
2019-01-08T01:19:00.141Z,1003.44
2019-01-08T01:20:00.177Z,1003.31
2019-01-08T01:21:00.128Z,1003.37
2019-01-08T01:22:00.134Z,1003.40
2019-01-08T01:23:00.130Z,1003.35
2019-01-08T01:24:00.088Z,1003.22
2019-01-08T01:25:00.106Z,1003.27
2019-01-08T01:26:00.064Z,1003.18
2019-01-08T01:27:00.062Z,1003.21
2019-01-08T01:28:00.049Z,1003.13
2019-01-08T01:29:00.490Z,1003.01
2019-01-08T01:30:00.026Z,1003.02
2019-01-08T01:31:00.017Z,1002.98
2019-01-08T01:32:00.002Z,1003.00
2019-01-08T01:32:59.999Z,1003.01
2019-01-08T01:33:59.996Z,1002.96
2019-01-08T01:34:59.985Z,1002.95
2019-01-08T01:35:59.970Z,1002.92
2019-01-08T01:36:59.948Z,1002.94
2019-01-08T01:37:59.927Z,1002.89
2019-01-08T01:38:59.956Z,1002.82
2019-01-08T01:39:59.919Z,1002.79
2019-01-08T01:40:59.912Z,1002.82
2019-01-08T01:41:59.900Z,1002.77
2019-01-08T01:42:59.898Z,1002.73
2019-01-08T01:43:59.865Z,1002.68
2019-01-08T01:44:59.878Z,1002.66
2019-01-08T01:45:59.847Z,1002.62
2019-01-08T01:46:59.855Z,1002.60
2019-01-08T01:47:59.866Z,1002.59
2019-01-08T01:48:59.837Z,1002.57
2019-01-08T01:49:59.827Z,1002.56
2019-01-08T01:50:59.813Z,1002.59
2019-01-08T01:51:59.791Z,1002.56
2019-01-08T01:52:59.777Z,1002.57
2019-01-08T01:53:59.762Z,1002.59
2019-01-08T01:54:59.771Z,1002.58
2019-01-08T01:55:59.739Z,1002.52
2019-01-08T01:56:59.728Z,1002.47
2019-01-08T01:57:59.710Z,1002.43
2019-01-08T01:59:08.120Z,1002.33
2019-01-08T02:00:00.709Z,1002.32
2019-01-08T02:00:59.693Z,1002.28
2019-01-08T02:01:59.708Z,1002.30
2019-01-08T02:02:59.665Z,1002.27
2019-01-08T02:03:59.653Z,1002.25
2019-01-08T02:04:59.674Z,1002.23
2019-01-08T02:05:59.637Z,1002.19
2019-01-08T02:06:59.633Z,1002.21
2019-01-08T02:07:59.609Z,1002.17
2019-01-08T02:08:59.593Z,1002.13
2019-01-08T02:09:59.589Z,1002.13
2019-01-08T02:10:59.602Z,1002.04
2019-01-08T02:11:59.580Z,1002.04
2019-01-08T02:12:59.562Z,1002.09
2019-01-08T02:13:59.545Z,1002.03
2019-01-08T02:14:59.552Z,1002.01
2019-01-08T02:15:59.542Z,1001.98
2019-01-08T02:16:59.504Z,1001.96
2019-01-08T02:17:59.492Z,1001.99
2019-01-08T02:18:59.513Z,1001.97
2019-01-08T02:19:59.484Z,1002.00
2019-01-08T02:20:59.514Z,1001.92
2019-01-08T02:21:59.456Z,1001.90
2019-01-08T02:22:59.450Z,1001.94
2019-01-08T02:23:59.433Z,1001.92
2019-01-08T02:24:59.425Z,1001.93
2019-01-08T02:25:59.418Z,1001.85
2019-01-08T02:26:59.424Z,1001.93
2019-01-08T02:27:59.392Z,1001.86
2019-01-08T02:28:59.383Z,1001.88
2019-01-08T02:29:59.369Z,1001.84
2019-01-08T02:30:59.385Z,1001.88
2019-01-08T02:31:59.359Z,1001.87
2019-01-08T02:32:59.355Z,1001.74
2019-01-08T02:33:59.332Z,1001.75
2019-01-08T02:34:59.305Z,1001.63
2019-01-08T02:35:59.306Z,1001.69
2019-01-08T02:36:59.286Z,1001.78
2019-01-08T02:37:59.293Z,1001.71
2019-01-08T02:38:59.280Z,1001.68
2019-01-08T02:39:59.258Z,1001.64
2019-01-08T02:40:59.239Z,1001.59
2019-01-08T02:41:59.363Z,1001.56
2019-01-08T02:42:59.251Z,1001.41
2019-01-08T02:43:59.262Z,1001.51
2019-01-08T02:44:59.214Z,1001.48
2019-01-08T02:45:59.225Z,1001.41
2019-01-08T02:46:59.183Z,1001.35
2019-01-08T02:47:59.211Z,1001.42
2019-01-08T02:48:59.158Z,1001.48
2019-01-08T02:49:59.151Z,1001.36
2019-01-08T02:50:59.149Z,1001.36
2019-01-08T02:51:59.138Z,1001.38
2019-01-08T02:52:59.127Z,1001.40
2019-01-08T02:53:59.133Z,1001.41
2019-01-08T02:54:59.093Z,1001.33
2019-01-08T02:55:59.086Z,1001.34
2019-01-08T02:56:59.079Z,1001.31
2019-01-08T02:57:59.075Z,1001.32
2019-01-08T02:58:59.052Z,1001.27
2019-01-08T02:59:59.068Z,1001.27
2019-01-08T03:00:59.027Z,1001.23
2019-01-08T03:01:59.014Z,1001.18
2019-01-08T03:02:59.020Z,1001.14
2019-01-08T03:03:59.019Z,1001.12
2019-01-08T03:04:58.995Z,1001.10
2019-01-08T03:05:59.010Z,1001.06
2019-01-08T03:06:58.963Z,1001.04
2019-01-08T03:07:58.953Z,1000.99
2019-01-08T03:08:58.941Z,1000.96
2019-01-08T03:09:58.949Z,1000.95
2019-01-08T03:10:58.947Z,1000.93
2019-01-08T03:11:58.929Z,1000.95
2019-01-08T03:12:58.892Z,1000.89
2019-01-08T03:13:58.888Z,1000.85
2019-01-08T03:14:58.888Z,1000.81
2019-01-08T03:15:58.893Z,1000.79
2019-01-08T03:16:58.866Z,1000.75
2019-01-08T03:17:58.857Z,1000.77
2019-01-08T03:18:58.838Z,1000.72
2019-01-08T03:19:58.815Z,1000.75
2019-01-08T03:20:58.828Z,1000.62
2019-01-08T03:21:58.813Z,1000.64
2019-01-08T03:22:58.798Z,1000.59
2019-01-08T03:23:58.787Z,1000.57
2019-01-08T03:24:58.781Z,1000.57
2019-01-08T03:25:58.785Z,1000.49
2019-01-08T03:26:58.764Z,1000.47
2019-01-08T03:27:58.744Z,1000.39
2019-01-08T03:28:58.729Z,1000.38
2019-01-08T03:29:58.727Z,1000.31
2019-01-08T03:30:58.730Z,1000.26
2019-01-08T03:31:58.792Z,1000.41
2019-01-08T03:32:58.677Z,1000.39
2019-01-08T03:33:58.682Z,1000.43
2019-01-08T03:34:58.673Z,1000.31
2019-01-08T03:35:58.653Z,1000.26
2019-01-08T03:36:58.668Z,1000.31
2019-01-08T03:37:58.630Z,1000.25
2019-01-08T03:38:58.614Z,1000.32
2019-01-08T03:39:58.604Z,1000.24
2019-01-08T03:40:58.625Z,1000.28
2019-01-08T03:41:58.602Z,1000.27
2019-01-08T03:42:58.581Z,1000.20
2019-01-08T03:43:58.568Z,1000.13
2019-01-08T03:44:58.552Z,1000.19
2019-01-08T03:45:58.547Z,1000.02
2019-01-08T03:46:58.536Z,1000.07
2019-01-08T03:47:58.552Z,1000.03
2019-01-08T03:48:58.515Z,1000.07
2019-01-08T03:49:58.512Z,1000.06
2019-01-08T03:50:58.492Z,1000.04
2019-01-08T03:51:58.480Z,999.99
2019-01-08T03:52:58.488Z,999.98
2019-01-08T03:53:58.452Z,999.98
2019-01-08T03:54:58.445Z,999.98
2019-01-08T03:55:58.436Z,999.91
2019-01-08T03:56:58.423Z,999.84
2019-01-08T03:57:58.417Z,999.79
2019-01-08T03:58:58.415Z,999.83
2019-01-08T03:59:58.386Z,999.78
2019-01-08T04:00:58.386Z,999.79
2019-01-08T04:01:58.370Z,999.75
2019-01-08T04:02:58.385Z,999.75
2019-01-08T04:03:58.350Z,999.74
2019-01-08T04:04:58.329Z,999.68
2019-01-08T04:05:58.324Z,999.69
2019-01-08T04:06:58.319Z,999.65
2019-01-08T04:07:58.304Z,999.62
2019-01-08T04:08:58.310Z,999.60
2019-01-08T04:09:58.290Z,999.58
2019-01-08T04:10:58.287Z,999.54
2019-01-08T04:11:58.257Z,999.53
2019-01-08T04:12:58.240Z,999.52
2019-01-08T04:13:58.264Z,999.49
2019-01-08T04:14:58.228Z,999.54
2019-01-08T04:16:00.171Z,999.40
2019-01-08T04:16:58.207Z,999.40
2019-01-08T04:17:58.187Z,999.34
2019-01-08T04:18:58.185Z,999.30
2019-01-08T04:19:58.208Z,999.38
2019-01-08T04:20:58.169Z,999.34
2019-01-08T04:21:58.156Z,999.35
2019-01-08T04:22:58.139Z,999.37
2019-01-08T04:23:58.125Z,999.38
2019-01-08T04:24:58.163Z,999.43
2019-01-08T04:25:58.106Z,999.37
2019-01-08T04:26:58.106Z,999.43
2019-01-08T04:27:58.089Z,999.43
2019-01-08T04:28:58.082Z,999.45
2019-01-08T04:29:58.085Z,999.33
2019-01-08T04:30:58.060Z,999.42
2019-01-08T04:31:58.035Z,999.38
2019-01-08T04:32:58.038Z,999.25
2019-01-08T04:33:58.024Z,999.24
2019-01-08T04:34:58.004Z,999.25
2019-01-08T04:35:58.039Z,999.21
2019-01-08T04:36:57.987Z,999.18
2019-01-08T04:37:57.973Z,999.21
2019-01-08T04:38:57.978Z,999.16
2019-01-08T04:39:57.965Z,999.08
2019-01-08T04:40:57.951Z,999.05
2019-01-08T04:41:57.957Z,998.99
2019-01-08T04:42:57.914Z,998.94
2019-01-08T04:43:57.913Z,998.94
2019-01-08T04:44:57.899Z,998.91
2019-01-08T04:45:57.901Z,998.84
2019-01-08T04:46:57.906Z,998.86
2019-01-08T04:47:57.877Z,998.90
2019-01-08T04:48:57.852Z,998.82
2019-01-08T04:49:57.839Z,998.75
2019-01-08T04:50:57.843Z,998.80
2019-01-08T04:51:57.863Z,998.69
2019-01-08T04:52:57.820Z,998.59
2019-01-08T04:53:57.800Z,998.46
2019-01-08T04:54:57.800Z,998.49
2019-01-08T04:55:57.789Z,998.49
2019-01-08T04:56:57.757Z,998.46
2019-01-08T04:57:57.785Z,998.38
2019-01-08T04:58:57.754Z,998.38
2019-01-08T04:59:59.089Z,998.37
2019-01-08T05:00:57.735Z,998.35
2019-01-08T05:01:57.732Z,998.31
2019-01-08T05:02:57.696Z,998.36
2019-01-08T05:03:57.712Z,998.23
2019-01-08T05:04:57.692Z,998.21
2019-01-08T05:05:57.677Z,998.22
2019-01-08T05:06:57.653Z,998.14
2019-01-08T05:07:57.659Z,998.13
2019-01-08T05:08:57.653Z,998.02
2019-01-08T05:09:57.624Z,997.96
2019-01-08T05:10:57.628Z,998.04
2019-01-08T05:11:57.617Z,997.95
2019-01-08T05:12:57.595Z,997.93
2019-01-08T05:13:57.611Z,997.85
2019-01-08T05:14:57.562Z,997.87
2019-01-08T05:15:57.558Z,997.90
2019-01-08T05:16:57.550Z,997.94
2019-01-08T05:17:57.533Z,997.81
2019-01-08T05:18:57.541Z,997.83
2019-01-08T05:19:57.548Z,997.78
2019-01-08T05:20:57.504Z,997.70
2019-01-08T05:21:57.494Z,997.81
2019-01-08T05:22:57.493Z,997.73
2019-01-08T05:23:57.482Z,997.84
2019-01-08T05:24:57.471Z,997.78
2019-01-08T05:25:57.482Z,997.75
2019-01-08T05:26:57.443Z,997.74
2019-01-08T05:27:57.455Z,997.76
2019-01-08T05:28:57.415Z,997.84
2019-01-08T05:29:57.412Z,997.76
2019-01-08T05:30:57.404Z,997.73
2019-01-08T05:31:57.399Z,997.71
2019-01-08T05:32:57.380Z,997.75
2019-01-08T05:33:57.399Z,997.65
2019-01-08T05:34:57.351Z,997.73
2019-01-08T05:35:57.341Z,997.67
2019-01-08T05:36:57.341Z,997.66
2019-01-08T05:37:57.325Z,997.65
2019-01-08T05:38:57.306Z,997.57
2019-01-08T05:39:57.308Z,997.55
2019-01-08T05:40:57.285Z,997.51
2019-01-08T05:41:57.302Z,997.56
2019-01-08T05:42:57.279Z,997.50
2019-01-08T05:43:57.268Z,997.47
2019-01-08T05:44:57.254Z,997.47
2019-01-08T05:45:57.242Z,997.38
2019-01-08T05:46:57.214Z,997.41
2019-01-08T05:47:57.235Z,997.35
2019-01-08T05:48:57.205Z,997.34
2019-01-08T05:49:57.191Z,997.32
2019-01-08T05:50:57.190Z,997.30
2019-01-08T05:51:57.192Z,997.29
2019-01-08T05:52:57.176Z,997.28
2019-01-08T05:53:57.143Z,997.30
2019-01-08T05:54:57.144Z,997.26
2019-01-08T05:55:57.129Z,997.26
2019-01-08T05:56:57.122Z,997.23
2019-01-08T05:57:57.147Z,997.26
2019-01-08T05:58:57.093Z,997.28
2019-01-08T05:59:57.089Z,997.23
2019-01-08T06:00:57.066Z,997.27
2019-01-08T06:01:57.061Z,997.23
2019-01-08T06:02:57.063Z,997.14
2019-01-08T06:03:57.070Z,997.11
2019-01-08T06:04:57.040Z,997.15
2019-01-08T06:05:57.027Z,997.08
2019-01-08T06:06:57.003Z,997.02
2019-01-08T06:07:56.990Z,997.02
2019-01-08T06:08:57.010Z,996.99
2019-01-08T06:09:56.971Z,997.06
2019-01-08T06:10:57.020Z,997.00
2019-01-08T06:11:56.952Z,997.04
2019-01-08T06:12:56.945Z,996.99
2019-01-08T06:13:56.947Z,996.95
2019-01-08T06:14:56.940Z,997.07
2019-01-08T06:15:56.941Z,996.99
2019-01-08T06:16:56.907Z,996.80
2019-01-08T06:17:56.891Z,996.92
2019-01-08T06:18:56.953Z,996.91
2019-01-08T06:19:56.877Z,996.88
2019-01-08T06:20:56.861Z,996.84
2019-01-08T06:21:56.855Z,996.83
2019-01-08T06:22:56.853Z,996.84
2019-01-08T06:23:56.844Z,996.79
2019-01-08T06:24:56.847Z,996.75
2019-01-08T06:25:56.822Z,996.77
2019-01-08T06:26:56.812Z,996.78
2019-01-08T06:27:56.798Z,996.69
2019-01-08T06:28:56.785Z,996.68
2019-01-08T06:29:57.071Z,996.61
2019-01-08T06:30:56.756Z,996.60
2019-01-08T06:31:56.752Z,996.56
2019-01-08T06:32:56.721Z,996.51
2019-01-08T06:33:56.717Z,996.46
2019-01-08T06:34:56.735Z,996.45
2019-01-08T06:35:56.783Z,996.43
2019-01-08T06:36:56.724Z,996.34
2019-01-08T06:37:56.677Z,996.38
2019-01-08T06:38:56.663Z,996.42
2019-01-08T06:39:56.661Z,996.33
2019-01-08T06:40:57.675Z,996.37
2019-01-08T06:41:56.633Z,996.38
2019-01-08T06:42:56.615Z,996.27
2019-01-08T06:43:56.605Z,996.36
2019-01-08T06:44:56.622Z,996.21
2019-01-08T06:45:56.583Z,996.21
2019-01-08T06:46:56.585Z,996.16
2019-01-08T06:47:56.585Z,996.16
2019-01-08T06:48:56.555Z,996.17
2019-01-08T06:49:56.541Z,996.16
2019-01-08T06:50:56.583Z,996.12
2019-01-08T06:51:56.513Z,996.13
2019-01-08T06:52:56.514Z,996.07
2019-01-08T06:53:56.488Z,996.05
2019-01-08T06:54:56.508Z,996.01
2019-01-08T06:55:56.506Z,996.00
2019-01-08T06:56:56.459Z,996.03
2019-01-08T06:57:56.450Z,995.95
2019-01-08T06:58:56.441Z,996.00
2019-01-08T06:59:56.439Z,995.94
2019-01-08T07:00:56.446Z,995.93
2019-01-08T07:01:56.444Z,995.96
2019-01-08T07:02:56.395Z,995.96
2019-01-08T07:03:56.378Z,995.82
2019-01-08T07:04:56.372Z,995.83
2019-01-08T07:05:56.378Z,995.82
2019-01-08T07:06:56.373Z,995.82
2019-01-08T07:07:56.368Z,995.81
2019-01-08T07:08:56.331Z,995.72
2019-01-08T07:09:56.322Z,995.72
2019-01-08T07:10:56.307Z,995.72
2019-01-08T07:11:56.326Z,995.70
2019-01-08T07:12:56.318Z,995.72
2019-01-08T07:13:56.285Z,995.74
2019-01-08T07:14:56.262Z,995.68
2019-01-08T07:15:56.259Z,995.61
2019-01-08T07:16:56.241Z,995.63
2019-01-08T07:17:56.252Z,995.55
2019-01-08T07:18:56.228Z,995.56
2019-01-08T07:19:56.233Z,995.55
2019-01-08T07:20:56.205Z,995.59
2019-01-08T07:21:56.207Z,995.56
2019-01-08T07:22:56.185Z,995.48
2019-01-08T07:23:56.161Z,995.50
2019-01-08T07:24:56.185Z,995.42
2019-01-08T07:25:56.145Z,995.37
2019-01-08T07:26:56.138Z,995.39
2019-01-08T07:27:56.160Z,995.40
2019-01-08T07:28:56.121Z,995.36
2019-01-08T07:29:56.099Z,995.32
2019-01-08T07:30:56.096Z,995.30
2019-01-08T07:31:56.084Z,995.26
2019-01-08T07:32:56.072Z,995.24
2019-01-08T07:33:56.086Z,995.25
2019-01-08T07:34:56.058Z,995.24
2019-01-08T07:35:56.033Z,995.30
2019-01-08T07:36:56.023Z,995.13
2019-01-08T07:37:56.013Z,995.24
2019-01-08T07:38:56.050Z,995.17
2019-01-08T07:39:55.996Z,995.15
2019-01-08T07:40:55.988Z,995.03
2019-01-08T07:41:56.003Z,995.11
2019-01-08T07:42:55.963Z,994.99
2019-01-08T07:43:55.943Z,994.95
2019-01-08T07:44:55.966Z,994.87
2019-01-08T07:45:55.928Z,994.87
2019-01-08T07:46:55.909Z,994.84
2019-01-08T07:47:55.916Z,994.92
2019-01-08T07:48:55.894Z,994.85
2019-01-08T07:49:55.887Z,994.82
2019-01-08T07:50:55.906Z,994.82
2019-01-08T07:51:55.874Z,994.78
2019-01-08T07:52:55.864Z,994.69
2019-01-08T07:53:55.855Z,994.63
2019-01-08T07:54:55.824Z,994.61
2019-01-08T07:55:55.823Z,994.54
2019-01-08T07:56:55.806Z,994.53
2019-01-08T07:57:55.816Z,994.59
2019-01-08T07:58:55.810Z,994.61
2019-01-08T07:59:55.784Z,994.64
2019-01-08T08:00:55.779Z,994.59
2019-01-08T08:01:55.764Z,994.61
2019-01-08T08:02:55.751Z,994.56
2019-01-08T08:03:55.744Z,994.62
2019-01-08T08:04:55.729Z,994.48
2019-01-08T08:05:55.749Z,994.47
2019-01-08T08:06:55.727Z,994.46
2019-01-08T08:07:55.684Z,994.40
2019-01-08T08:08:55.683Z,994.44
2019-01-08T08:09:55.660Z,994.38
2019-01-08T08:10:55.665Z,994.34
2019-01-08T08:11:55.756Z,994.33
2019-01-08T08:12:55.676Z,994.26
2019-01-08T08:13:55.629Z,994.29
2019-01-08T08:14:55.610Z,994.32
2019-01-08T08:15:55.597Z,994.16
2019-01-08T08:16:55.607Z,994.26
2019-01-08T08:17:55.614Z,994.29
2019-01-08T08:18:55.560Z,994.30
2019-01-08T08:19:55.561Z,994.21
2019-01-08T08:20:55.558Z,994.23
2019-01-08T08:21:55.530Z,994.21
2019-01-08T08:22:55.559Z,994.27
2019-01-08T08:23:55.518Z,994.18
2019-01-08T08:24:56.013Z,994.20
2019-01-08T08:25:55.499Z,994.28
2019-01-08T08:26:55.483Z,994.19
2019-01-08T08:27:55.460Z,994.18
2019-01-08T08:28:55.492Z,994.14
2019-01-08T08:29:55.458Z,994.13
2019-01-08T08:30:58.783Z,994.11
2019-01-08T08:31:55.437Z,994.11
2019-01-08T08:32:55.418Z,994.06
2019-01-08T08:33:55.399Z,993.98
2019-01-08T08:34:55.418Z,993.96
2019-01-08T08:35:55.391Z,993.92
2019-01-08T08:36:55.377Z,993.89
2019-01-08T08:37:55.373Z,993.94
2019-01-08T08:38:55.344Z,993.85
2019-01-08T08:39:55.362Z,993.85
2019-01-08T08:40:55.330Z,993.81
2019-01-08T08:41:55.317Z,993.73
2019-01-08T08:42:55.332Z,993.71
2019-01-08T08:43:55.309Z,993.76
2019-01-08T08:44:55.334Z,993.72
2019-01-08T08:45:55.284Z,993.69
2019-01-08T08:46:55.259Z,993.64
2019-01-08T08:47:55.249Z,993.61
2019-01-08T08:48:55.247Z,993.59
2019-01-08T08:49:55.229Z,993.57
2019-01-08T08:50:55.248Z,993.53
2019-01-08T08:51:55.210Z,993.43
2019-01-08T08:52:55.190Z,993.41
2019-01-08T08:53:55.188Z,993.44
2019-01-08T08:54:55.199Z,993.46
2019-01-08T08:55:55.213Z,993.41
2019-01-08T08:56:55.169Z,993.42
2019-01-08T08:57:55.167Z,993.34
2019-01-08T08:58:55.127Z,993.35
2019-01-08T08:59:55.116Z,993.39
2019-01-08T09:00:55.128Z,993.27
2019-01-08T09:01:55.117Z,993.28
2019-01-08T09:02:55.097Z,993.31
2019-01-08T09:03:55.087Z,993.28
2019-01-08T09:04:55.107Z,993.16
2019-01-08T09:05:55.061Z,993.17
2019-01-08T09:06:55.083Z,993.16
2019-01-08T09:07:55.052Z,993.09
2019-01-08T09:08:55.041Z,993.11
2019-01-08T09:09:55.018Z,993.13
2019-01-08T09:10:55.019Z,993.09
2019-01-08T09:11:54.990Z,992.99
2019-01-08T09:12:54.978Z,992.94
2019-01-08T09:13:54.985Z,993.04
2019-01-08T09:14:54.983Z,992.97
2019-01-08T09:15:54.962Z,992.93
2019-01-08T09:16:54.957Z,992.99
2019-01-08T09:17:54.936Z,992.98
2019-01-08T09:18:54.945Z,992.99
2019-01-08T09:19:54.914Z,992.92
2019-01-08T09:20:54.905Z,992.94
2019-01-08T09:21:54.884Z,992.92
2019-01-08T09:22:54.874Z,992.83
2019-01-08T09:23:56.101Z,992.88
2019-01-08T09:24:54.847Z,992.92
2019-01-08T09:25:54.846Z,992.73
2019-01-08T09:26:54.835Z,992.82
2019-01-08T09:27:54.820Z,992.79
2019-01-08T09:28:54.811Z,992.75
2019-01-08T09:29:54.828Z,992.78
2019-01-08T09:30:54.777Z,992.70
2019-01-08T09:31:54.781Z,992.64
2019-01-08T09:32:54.755Z,992.67
2019-01-08T09:33:54.753Z,992.61
2019-01-08T09:34:54.772Z,992.57
2019-01-08T09:35:54.738Z,992.51
2019-01-08T09:36:54.723Z,992.52
2019-01-08T09:37:54.714Z,992.52
2019-01-08T09:38:54.697Z,992.43
2019-01-08T09:39:54.693Z,992.55
2019-01-08T09:40:54.707Z,992.53
2019-01-08T09:41:54.677Z,992.48
2019-01-08T09:42:54.649Z,992.50
2019-01-08T09:43:54.640Z,992.45
2019-01-08T09:44:54.633Z,992.33
2019-01-08T09:45:54.641Z,992.34
2019-01-08T09:46:54.623Z,992.25
2019-01-08T09:47:54.603Z,992.38
2019-01-08T09:48:54.606Z,992.28
2019-01-08T09:49:54.583Z,992.28
2019-01-08T09:50:54.585Z,992.18
2019-01-08T09:51:54.624Z,992.28
2019-01-08T09:52:54.566Z,992.25
2019-01-08T09:53:54.545Z,992.19
2019-01-08T09:54:54.521Z,992.22
2019-01-08T09:55:54.528Z,992.21
2019-01-08T09:56:54.500Z,992.12
2019-01-08T09:57:54.491Z,992.12
2019-01-08T09:58:54.509Z,992.08
2019-01-08T09:59:54.472Z,992.06
2019-01-08T10:00:54.475Z,992.11
2019-01-08T10:01:54.472Z,992.06
2019-01-08T10:02:54.429Z,992.05
2019-01-08T10:03:54.430Z,992.04
2019-01-08T10:04:54.413Z,992.03
2019-01-08T10:05:56.473Z,991.92
2019-01-08T10:06:54.427Z,991.89
2019-01-08T10:07:54.386Z,991.93
2019-01-08T10:08:54.369Z,991.91
2019-01-08T10:09:54.363Z,991.83
2019-01-08T10:10:54.350Z,991.83
2019-01-08T10:11:54.344Z,991.73
2019-01-08T10:12:54.356Z,991.75
2019-01-08T10:13:54.319Z,991.74
2019-01-08T10:14:54.308Z,991.73
2019-01-08T10:15:54.289Z,991.74
2019-01-08T10:16:54.289Z,991.61
2019-01-08T10:17:54.272Z,991.66
2019-01-08T10:18:54.289Z,991.69
2019-01-08T10:19:54.257Z,991.63
2019-01-08T10:20:54.258Z,991.56
2019-01-08T10:21:54.236Z,991.60
2019-01-08T10:22:54.222Z,991.52
2019-01-08T10:23:54.270Z,991.48
2019-01-08T10:24:54.255Z,991.45
2019-01-08T10:25:54.190Z,991.55
2019-01-08T10:26:54.180Z,991.41
2019-01-08T10:27:54.167Z,991.44
2019-01-08T10:28:54.192Z,991.41
2019-01-08T10:29:54.145Z,991.44
2019-01-08T10:30:54.157Z,991.34
2019-01-08T10:31:54.126Z,991.34
2019-01-08T10:32:54.115Z,991.32
2019-01-08T10:33:54.121Z,991.29
2019-01-08T10:34:54.103Z,991.31
2019-01-08T10:35:54.170Z,991.24
2019-01-08T10:36:54.056Z,991.18
2019-01-08T10:37:54.041Z,991.12
2019-01-08T10:38:54.067Z,991.21
2019-01-08T10:39:54.070Z,991.31
2019-01-08T10:40:54.032Z,991.29
2019-01-08T10:41:54.019Z,991.16
2019-01-08T10:42:54.024Z,991.15
2019-01-08T10:43:53.999Z,991.22
2019-01-08T10:44:53.989Z,991.19
2019-01-08T10:45:53.993Z,991.14
2019-01-08T10:46:53.944Z,991.20
2019-01-08T10:47:53.952Z,991.04
2019-01-08T10:48:53.937Z,991.13
2019-01-08T10:49:53.921Z,990.98
2019-01-08T10:50:53.934Z,990.98
2019-01-08T10:51:53.924Z,991.00
2019-01-08T10:52:53.908Z,990.99
2019-01-08T10:53:53.898Z,990.99
2019-01-08T10:54:53.872Z,991.00
2019-01-08T10:55:53.877Z,990.89
2019-01-08T10:56:53.850Z,990.92
2019-01-08T10:57:53.839Z,990.95
2019-01-08T10:58:53.831Z,990.91
2019-01-08T10:59:53.826Z,990.91
2019-01-08T11:00:53.827Z,990.83
2019-01-08T11:01:53.792Z,990.81
2019-01-08T11:02:53.817Z,990.82
2019-01-08T11:03:53.776Z,990.80
2019-01-08T11:04:53.762Z,990.77
2019-01-08T11:05:53.782Z,990.76
2019-01-08T11:06:53.749Z,990.72
2019-01-08T11:07:53.728Z,990.78
2019-01-08T11:08:53.716Z,990.70
2019-01-08T11:09:53.699Z,990.70
2019-01-08T11:10:53.705Z,990.70
2019-01-08T11:11:53.706Z,990.75
2019-01-08T11:12:53.676Z,990.74
2019-01-08T11:13:53.654Z,990.55
2019-01-08T11:14:53.663Z,990.62
2019-01-08T11:15:53.654Z,990.65
2019-01-08T11:16:53.674Z,990.66
2019-01-08T11:17:53.626Z,990.58
2019-01-08T11:18:53.699Z,990.60
2019-01-08T11:19:53.599Z,990.57
2019-01-08T11:20:53.583Z,990.61
2019-01-08T11:21:53.575Z,990.57
2019-01-08T11:22:53.591Z,990.58
2019-01-08T11:23:53.565Z,990.59
2019-01-08T11:24:53.596Z,990.53
2019-01-08T11:25:53.539Z,990.52
2019-01-08T11:26:53.519Z,990.46
2019-01-08T11:27:53.535Z,990.35
2019-01-08T11:28:53.510Z,990.46
2019-01-08T11:29:53.504Z,990.44
2019-01-08T11:30:53.473Z,990.35
2019-01-08T11:31:53.467Z,990.39
2019-01-08T11:32:54.800Z,990.45
2019-01-08T11:33:53.445Z,990.27
2019-01-08T11:34:53.465Z,990.42
2019-01-08T11:35:53.431Z,990.33
2019-01-08T11:36:53.418Z,990.37
2019-01-08T11:37:53.409Z,990.34
2019-01-08T11:38:53.383Z,990.31
2019-01-08T11:39:53.394Z,990.29
2019-01-08T11:40:53.366Z,990.32
2019-01-08T11:41:53.358Z,990.22
2019-01-08T11:42:53.349Z,990.29
2019-01-08T11:43:53.359Z,990.24
2019-01-08T11:44:53.335Z,990.21
2019-01-08T11:45:53.313Z,990.18
2019-01-08T11:46:53.311Z,990.19
2019-01-08T11:47:53.306Z,989.95
2019-01-08T11:48:53.288Z,990.13
2019-01-08T11:49:53.297Z,990.17
2019-01-08T11:50:53.285Z,990.08
2019-01-08T11:51:53.258Z,990.10
2019-01-08T11:52:53.230Z,990.30
2019-01-08T11:53:53.228Z,990.23
2019-01-08T11:54:53.224Z,990.20
2019-01-08T11:55:53.213Z,990.18
2019-01-08T11:56:53.229Z,990.15
2019-01-08T11:57:53.194Z,990.19
2019-01-08T11:58:53.178Z,990.14
2019-01-08T11:59:53.203Z,990.24
2019-01-08T12:00:53.162Z,990.11
2019-01-08T12:01:57.403Z,990.09
2019-01-08T12:02:53.134Z,990.07
2019-01-08T12:03:53.120Z,990.13
2019-01-08T12:04:53.099Z,990.08
2019-01-08T12:05:53.097Z,989.95
2019-01-08T12:06:53.100Z,990.02
2019-01-08T12:07:53.100Z,989.99
2019-01-08T12:08:53.089Z,989.99
2019-01-08T12:09:53.062Z,990.02
2019-01-08T12:10:53.036Z,989.96
2019-01-08T12:11:53.041Z,990.00
2019-01-08T12:12:53.022Z,990.05
2019-01-08T12:13:53.030Z,989.94
2019-01-08T12:14:52.997Z,990.02
2019-01-08T12:15:52.987Z,990.04
2019-01-08T12:16:52.994Z,989.98
2019-01-08T12:17:52.964Z,990.01
2019-01-08T12:18:53.557Z,990.06
2019-01-08T12:19:52.950Z,990.03
2019-01-08T12:20:52.941Z,989.86